Weather at Sharp Memorial Hospital Helipad

Public forecast

Using degrees Fahrenheit for public forecast. Weather courtesy of forecast.io.

Closest aviation weather report (METAR) to Sharp Memorial Hospital Helipad

Closest report is Montgomery-Gibbs Executive Airport, 1.2 nm (2.2 km) NE.

2024/07/17 18:53 (retrieved 21 minutes ago)

KMYF 171853Z 25007KT 10SM FEW016 23/17 A2999 RMK AO2 SLP150 T02280172

Closest aviation forecast (TAF) to Sharp Memorial Hospital Helipad

Closest forecast is San Diego International Airport, 4.4 nm (8.1 km) SSW.

2024/07/17 19:36 Ammendment (retrieved 0 seconds ago)

TAF AMD KSAN 171833Z 1719/1824 28005KT P6SM OVC012 FM172000 26009KT P6SM SCT015 FM180200 24005KT P6SM SCT015 FM180700 VRB04KT P6SM OVC012 FM181700 20005KT P6SM SCT015 SCT120 FM181900 25008KT P6SM SCT120